createdAt,value
2022-09-12T00:01:54.263Z,99611.56
2022-09-12T00:06:56.384Z,99603.97
2022-09-12T00:11:58.425Z,99600.78
2022-09-12T00:17:00.741Z,99609.75
2022-09-12T00:22:02.871Z,99600.97
2022-09-12T00:27:04.977Z,99590.84
2022-09-12T00:32:07.166Z,99584.03
2022-09-12T00:37:09.308Z,99581.09
2022-09-12T00:42:12.831Z,99594.03
2022-09-12T00:47:20.951Z,99584.56
2022-09-12T00:52:37.617Z,99583.94
2022-09-12T00:58:02.425Z,99576.75
2022-09-12T01:03:09.159Z,99575.75
2022-09-12T01:08:11.650Z,99577.41
2022-09-12T01:13:14.462Z,99569.84
2022-09-12T01:18:37.715Z,99569.44
2022-09-12T01:24:08.071Z,99561.03
2022-09-12T01:29:31.926Z,99560.84
2022-09-12T01:34:50.097Z,99554.50
2022-09-12T01:40:19.383Z,99566.78
2022-09-12T01:45:32.978Z,99552.56
2022-09-12T01:50:52.935Z,99564.75
2022-09-12T01:56:02.519Z,99561.59
2022-09-12T02:01:22.472Z,99557.56
2022-09-12T02:06:32.140Z,99567.66
2022-09-12T02:11:39.697Z,99565.09
2022-09-12T02:17:08.003Z,99567.47
2022-09-12T02:22:15.773Z,99567.50
2022-09-12T02:27:31.133Z,99552.66
2022-09-12T02:33:02.057Z,99566.00
2022-09-12T02:38:13.447Z,99559.16
2022-09-12T02:43:15.655Z,99551.56
2022-09-12T02:48:30.556Z,99564.72
2022-09-12T02:53:33.950Z,99565.13
2022-09-12T02:58:35.999Z,99558.28
2022-09-12T03:04:27.137Z,99557.78
2022-09-12T03:09:53.991Z,99569.81
2022-09-12T03:15:08.137Z,99566.25
2022-09-12T03:20:36.886Z,99559.56
2022-09-12T03:25:47.630Z,99553.03
2022-09-12T03:30:54.854Z,99571.72
2022-09-12T03:35:57.263Z,99577.22
2022-09-12T03:41:01.028Z,99558.09
2022-09-12T03:46:03.180Z,99569.34
2022-09-12T03:51:08.775Z,99572.91
2022-09-12T03:56:12.773Z,99579.16
2022-09-12T04:01:18.079Z,99573.47
2022-09-12T04:06:22.593Z,99573.47
2022-09-12T04:11:24.659Z,99562.84
2022-09-12T04:16:27.049Z,99566.06
2022-09-12T04:21:29.310Z,99563.22
2022-09-12T04:26:31.899Z,99562.38
2022-09-12T04:31:33.825Z,99573.28
2022-09-12T04:36:36.398Z,99566.06
2022-09-12T04:41:39.914Z,99576.13
2022-09-12T04:46:45.552Z,99574.66
2022-09-12T04:51:47.820Z,99564.88
2022-09-12T04:56:52.519Z,99583.47
2022-09-12T05:01:54.696Z,99588.69
2022-09-12T05:06:56.657Z,99583.09
2022-09-12T05:12:04.183Z,99582.06
2022-09-12T05:17:07.356Z,99580.72
2022-09-12T05:22:09.873Z,99588.56
2022-09-12T05:27:11.964Z,99573.09
2022-09-12T05:32:14.067Z,99576.91
2022-09-12T05:37:16.056Z,99586.16
2022-09-12T05:42:18.183Z,99568.97
2022-09-12T05:47:20.177Z,99567.69
2022-09-12T05:52:22.310Z,99579.81
2022-09-12T05:57:24.335Z,99567.31
2022-09-12T06:02:26.795Z,99565.09
2022-09-12T06:07:29.515Z,99565.97
2022-09-12T06:12:31.656Z,99565.91
2022-09-12T06:17:33.725Z,99572.84
2022-09-12T06:22:35.869Z,99567.28
2022-09-12T06:27:37.913Z,99564.16
2022-09-12T06:32:40.009Z,99563.19
2022-09-12T06:37:44.214Z,99575.09
2022-09-12T06:42:46.307Z,99565.94
2022-09-12T06:47:56.671Z,99575.00
2022-09-12T06:52:58.710Z,99578.03
2022-09-12T06:58:00.757Z,99571.63
2022-09-12T07:03:02.956Z,99573.94
2022-09-12T07:08:04.990Z,99564.03
2022-09-12T07:13:07.129Z,99580.94
2022-09-12T07:18:10.532Z,99577.56
2022-09-12T07:23:12.639Z,99550.69
2022-09-12T07:28:14.947Z,99569.16
2022-09-12T07:33:17.785Z,99573.97
2022-09-12T07:38:23.204Z,99572.91
2022-09-12T07:43:25.595Z,99577.72
2022-09-12T07:48:28.547Z,99575.25
2022-09-12T07:53:37.011Z,99581.63
2022-09-12T07:58:41.105Z,99589.63
2022-09-12T08:03:44.845Z,99591.91
2022-09-12T08:08:48.551Z,99583.47
2022-09-12T08:13:55.246Z,99590.28
2022-09-12T08:19:00.037Z,99590.31
2022-09-12T08:24:05.199Z,99604.47
2022-09-12T08:29:07.245Z,99586.97
2022-09-12T08:34:09.789Z,99601.94
2022-09-12T08:39:30.358Z,99602.53
2022-09-12T08:44:48.063Z,99604.88
2022-09-12T08:49:56.648Z,99593.53
2022-09-12T08:54:58.954Z,99578.31
2022-09-12T09:00:04.935Z,99592.75
2022-09-12T09:05:22.044Z,99591.88
2022-09-12T09:10:49.928Z,99590.72
2022-09-12T09:16:21.771Z,99587.25
2022-09-12T09:21:33.075Z,99584.56
2022-09-12T09:26:46.632Z,99574.78
2022-09-12T09:31:53.423Z,99588.13
2022-09-12T09:37:01.722Z,99583.69
2022-09-12T09:42:22.708Z,99574.94
2022-09-12T09:47:24.878Z,99578.63
2022-09-12T09:52:30.925Z,99558.75
2022-09-12T09:57:36.378Z,99587.34
2022-09-12T10:02:38.797Z,99585.75
2022-09-12T10:07:50.355Z,99580.41
2022-09-12T10:13:07.483Z,99579.91
2022-09-12T10:18:10.086Z,99580.91
2022-09-12T10:23:35.599Z,99574.28
2022-09-12T10:28:40.930Z,99564.44
2022-09-12T10:33:52.929Z,99579.03
2022-09-12T10:38:57.593Z,99568.66
2022-09-12T10:44:16.556Z,99574.19
2022-09-12T10:49:26.697Z,99584.63
2022-09-12T10:54:28.839Z,99569.78
2022-09-12T10:59:40.308Z,99562.53
2022-09-12T11:05:04.079Z,99573.41
2022-09-12T11:10:35.645Z,99567.44
2022-09-12T11:15:48.656Z,99565.91
2022-09-12T11:21:21.875Z,99560.69
2022-09-12T11:26:42.020Z,99564.25
2022-09-12T11:31:44.006Z,99558.44
2022-09-12T11:37:18.192Z,99538.72
2022-09-12T11:42:36.493Z,99570.66
2022-09-12T11:47:40.973Z,99546.75
2022-09-12T11:52:43.069Z,99540.16
2022-09-12T11:57:55.894Z,99551.31
2022-09-12T12:03:07.135Z,99538.28
2022-09-12T12:08:11.056Z,99539.47
2022-09-12T12:13:33.381Z,99538.28
2022-09-12T12:18:40.456Z,99543.09
2022-09-12T12:24:08.122Z,99520.00
2022-09-12T12:29:22.317Z,99539.28
2022-09-12T12:34:42.906Z,99536.47
2022-09-12T12:39:52.030Z,99529.06
2022-09-12T12:44:54.107Z,99524.84
2022-09-12T12:50:01.964Z,99522.97
2022-09-12T12:55:05.744Z,99523.28
2022-09-12T13:00:25.382Z,99525.75
2022-09-12T13:05:30.835Z,99504.38
2022-09-12T13:10:33.486Z,99515.06
2022-09-12T13:15:35.599Z,99503.81
2022-09-12T13:20:54.420Z,99517.69
2022-09-12T13:26:01.951Z,99510.19
2022-09-12T13:31:09.970Z,99519.53
2022-09-12T13:36:40.041Z,99520.28
2022-09-12T13:42:03.388Z,99506.47
2022-09-12T13:47:05.720Z,99518.59
2022-09-12T13:52:21.507Z,99501.00
2022-09-12T13:57:37.743Z,99505.47
2022-09-12T14:02:40.721Z,99494.34
2022-09-12T14:07:54.445Z,99494.34
2022-09-12T14:12:57.599Z,99499.31
2022-09-12T14:18:03.424Z,99489.38
2022-09-12T14:23:29.187Z,99503.31
2022-09-12T14:28:33.040Z,99495.91
2022-09-12T14:33:52.955Z,99499.53
2022-09-12T14:39:04.804Z,99501.00
2022-09-12T14:44:14.441Z,99504.97
2022-09-12T14:49:21.401Z,99520.63
2022-09-12T14:54:30.342Z,99515.09
2022-09-12T14:59:35.578Z,99514.94
2022-09-12T15:04:42.595Z,99510.91
2022-09-12T15:09:47.338Z,99521.44
2022-09-12T15:14:49.751Z,99509.75
2022-09-12T15:19:51.917Z,99510.16
2022-09-12T15:24:53.975Z,99519.56
2022-09-12T15:29:56.607Z,99527.03
2022-09-12T15:34:58.831Z,99521.06
2022-09-12T15:40:01.343Z,99538.53
2022-09-12T15:45:17.558Z,99534.63
2022-09-12T15:50:20.207Z,99534.56
2022-09-12T15:55:25.322Z,99540.09
2022-09-12T16:00:27.514Z,99549.25
2022-09-12T16:05:29.926Z,99547.72
2022-09-12T16:10:31.931Z,99550.41
2022-09-12T16:15:34.221Z,99545.91
2022-09-12T16:20:40.127Z,99540.16
2022-09-12T16:25:43.051Z,99547.66
2022-09-12T16:30:55.599Z,99548.31
2022-09-12T16:36:01.392Z,99543.69
2022-09-12T16:41:06.717Z,99548.31
2022-09-12T16:46:10.507Z,99547.00
2022-09-12T16:51:13.182Z,99555.31
2022-09-12T16:56:15.840Z,99543.66
2022-09-12T17:01:20.608Z,99546.50
2022-09-12T17:06:23.987Z,99548.63
2022-09-12T17:11:32.211Z,99551.03
2022-09-12T17:16:51.476Z,99549.00
2022-09-12T17:21:54.451Z,99548.06
2022-09-12T17:26:57.298Z,99556.69
2022-09-12T17:31:59.646Z,99550.66
2022-09-12T17:37:02.027Z,99553.47
2022-09-12T17:42:04.668Z,99561.72
2022-09-12T17:47:07.072Z,99551.84
2022-09-12T17:52:09.568Z,99565.13
2022-09-12T17:57:11.875Z,99552.75
2022-09-12T18:02:14.564Z,99565.94
2022-09-12T18:07:18.853Z,99561.47
2022-09-12T18:12:21.623Z,99559.72
2022-09-12T18:17:27.495Z,99557.97
2022-09-12T18:22:29.598Z,99562.06
2022-09-12T18:27:31.505Z,99546.66
2022-09-12T18:32:33.964Z,99566.25
2022-09-12T18:37:36.187Z,99558.63
2022-09-12T18:42:38.245Z,99564.75
2022-09-12T18:47:41.603Z,99561.09
2022-09-12T18:52:43.810Z,99562.94
2022-09-12T18:57:45.759Z,99556.97
2022-09-12T19:02:47.916Z,99557.44
2022-09-12T19:07:49.880Z,99554.09
2022-09-12T19:12:52.056Z,99558.88
2022-09-12T19:17:54.205Z,99555.16
2022-09-12T19:22:56.262Z,99532.72
2022-09-12T19:27:58.372Z,99540.97
2022-09-12T19:33:00.448Z,99562.16
2022-09-12T19:38:02.599Z,99558.69
2022-09-12T19:43:04.625Z,99572.00
2022-09-12T19:48:07.395Z,99558.06
2022-09-12T19:53:09.835Z,99556.94
2022-09-12T19:58:12.733Z,99557.88
2022-09-12T20:03:14.922Z,99541.19
2022-09-12T20:08:16.868Z,99552.47
2022-09-12T20:13:19.019Z,99547.16
2022-09-12T20:18:21.261Z,99553.88
2022-09-12T20:23:23.463Z,99545.88
2022-09-12T20:28:25.563Z,99548.13
2022-09-12T20:33:27.633Z,99546.59
2022-09-12T20:38:29.848Z,99545.69
2022-09-12T20:43:32.056Z,99553.47
2022-09-12T20:48:34.237Z,99544.44
2022-09-12T20:53:36.294Z,99552.66
2022-09-12T20:58:43.029Z,99545.59
2022-09-12T21:03:47.056Z,99537.97
2022-09-12T21:08:50.537Z,99540.44
2022-09-12T21:13:53.716Z,99541.66
2022-09-12T21:18:58.389Z,99540.00
2022-09-12T21:24:02.933Z,99545.69
2022-09-12T21:29:05.041Z,99536.06
2022-09-12T21:34:07.099Z,99544.13
2022-09-12T21:39:09.305Z,99538.59
2022-09-12T21:44:11.484Z,99532.19
2022-09-12T21:49:13.430Z,99529.53
2022-09-12T21:54:15.511Z,99527.88
2022-09-12T21:59:17.500Z,99525.78
2022-09-12T22:04:19.507Z,99517.94
2022-09-12T22:09:21.535Z,99524.03
2022-09-12T22:14:23.751Z,99515.59
2022-09-12T22:19:26.449Z,99509.00
2022-09-12T22:24:28.612Z,99505.91
2022-09-12T22:29:30.572Z,99513.94
2022-09-12T22:34:32.679Z,99507.63
2022-09-12T22:39:34.750Z,99510.47
2022-09-12T22:44:36.900Z,99509.25
2022-09-12T22:49:38.879Z,99512.00
2022-09-12T22:54:40.943Z,99498.31
2022-09-12T22:59:43.042Z,99496.22
2022-09-12T23:04:46.802Z,99492.72
2022-09-12T23:09:48.841Z,99486.72
2022-09-12T23:14:50.960Z,99493.78
2022-09-12T23:19:53.022Z,99481.53
2022-09-12T23:24:55.113Z,99477.06
2022-09-12T23:29:57.160Z,99480.06
2022-09-12T23:34:59.388Z,99479.00
2022-09-12T23:40:01.508Z,99469.97
2022-09-12T23:45:04.074Z,99464.81
2022-09-12T23:50:06.694Z,99471.22
2022-09-12T23:55:09.345Z,99467.66
